Time;durP1;ratioP1;P1;durP2;ratioP2;P2;SDS_P1;SDS_P2;PMS_P1;PMS_P2;Temp;Humidity;BMP_temperature;BMP_pressure;BME280_temperature;BME280_humidity;BME280_pressure;Samples;Min_cycle;Max_cycle;Signal;HPM_P1;HPM_P2
2020/12/30 00:00:59;;;;;;;10.02;9.30;;;;;;;5.35;100.00;97653.00;2031243;29;20235;-75
2020/12/30 00:02:00;;;;;;;10.07;9.55;;;;;;;5.34;100.00;97656.72;2031487;29;20223;-75
2020/12/30 00:03:01;;;;;;;10.10;9.50;;;;;;;5.31;100.00;97665.25;2032075;29;20300;-75
2020/12/30 00:04:02;;;;;;;10.15;9.55;;;;;;;5.22;100.00;97653.81;2031943;29;20306;-75
2020/12/30 00:05:05;;;;;;;10.07;9.43;;;;;;;5.19;100.00;97657.00;2031242;29;20224;-75
2020/12/30 00:06:06;;;;;;;10.27;9.50;;;;;;;5.15;100.00;97658.69;2032021;29;20229;-75
2020/12/30 00:07:07;;;;;;;9.83;9.23;;;;;;;5.13;100.00;97674.06;2032327;29;20234;-76
2020/12/30 00:08:08;;;;;;;10.45;9.43;;;;;;;5.06;100.00;97666.53;2024656;29;20307;-75
2020/12/30 00:09:09;;;;;;;9.77;9.07;;;;;;;5.01;100.00;97667.41;2032512;29;20227;-75
2020/12/30 00:10:12;;;;;;;9.80;9.20;;;;;;;4.99;100.00;97666.91;2032723;29;20219;-77
2020/12/30 00:11:15;;;;;;;9.75;9.25;;;;;;;4.91;100.00;97664.94;2033348;29;20260;-75
2020/12/30 00:12:16;;;;;;;10.05;9.45;;;;;;;4.88;100.00;97654.19;2032811;29;20219;-76
2020/12/30 00:13:18;;;;;;;10.20;9.50;;;;;;;4.94;100.00;97671.50;2032664;29;20226;-75
2020/12/30 00:14:19;;;;;;;11.20;10.50;;;;;;;4.89;100.00;97661.81;2032767;29;20223;-76
2020/12/30 00:15:21;;;;;;;9.97;9.27;;;;;;;4.95;100.00;97670.41;2033338;29;20220;-77
2020/12/30 00:16:21;;;;;;;11.00;10.30;;;;;;;4.99;100.00;97682.78;2033482;29;20642;-76
2020/12/30 00:17:23;;;;;;;11.70;10.90;;;;;;;5.05;100.00;97678.97;2032508;29;20227;-76
2020/12/30 00:18:24;;;;;;;10.35;9.75;;;;;;;5.10;100.00;97673.56;2025122;29;20232;-76
2020/12/30 00:19:25;;;;;;;11.10;10.30;;;;;;;5.05;100.00;97663.09;2032386;29;20690;-76
2020/12/30 00:20:26;;;;;;;10.73;10.02;;;;;;;5.08;100.00;97675.72;2033350;29;20270;-74
2020/12/30 00:21:27;;;;;;;10.50;9.80;;;;;;;5.01;100.00;97670.03;2032771;29;20298;-74
2020/12/30 00:22:28;;;;;;;10.05;9.45;;;;;;;5.01;100.00;97675.31;2032614;29;20230;-74
2020/12/30 00:23:29;;;;;;;9.97;9.27;;;;;;;4.85;100.00;97660.81;2032782;29;20229;-74
2020/12/30 00:24:30;;;;;;;9.60;8.90;;;;;;;4.95;100.00;97678.34;2024916;29;20230;-74
2020/12/30 00:25:31;;;;;;;8.60;8.10;;;;;;;4.92;100.00;97677.09;2032958;29;20223;-73
2020/12/30 00:26:32;;;;;;;8.27;7.78;;;;;;;4.89;100.00;97672.41;2033344;29;20227;-73
2020/12/30 00:27:34;;;;;;;8.80;8.10;;;;;;;4.86;100.00;97677.47;2033369;29;20231;-73
2020/12/30 00:28:35;;;;;;;9.15;8.32;;;;;;;4.81;100.00;97675.72;2033428;29;20224;-73
2020/12/30 00:29:36;;;;;;;9.20;8.60;;;;;;;4.77;100.00;97675.50;2033280;29;20238;-74
2020/12/30 00:30:37;;;;;;;8.82;8.27;;;;;;;4.73;100.00;97671.09;2032912;29;20227;-74
2020/12/30 00:31:38;;;;;;;8.90;8.30;;;;;;;4.70;100.00;97680.41;2032561;29;20778;-74
2020/12/30 00:32:39;;;;;;;8.50;7.93;;;;;;;4.61;100.00;97674.22;2025016;29;20227;-74
2020/12/30 00:33:40;;;;;;;8.73;8.13;;;;;;;4.65;100.00;97683.13;2032767;29;20243;-74
2020/12/30 00:34:41;;;;;;;8.20;7.70;;;;;;;4.63;100.00;97671.28;2033295;29;20471;-74
2020/12/30 00:35:42;;;;;;;9.13;8.43;;;;;;;4.70;100.00;97679.63;2032803;29;20227;-74
2020/12/30 00:36:43;;;;;;;8.90;8.13;;;;;;;4.66;100.00;97684.69;2032058;29;20254;-74
2020/12/30 00:37:45;;;;;;;8.82;8.23;;;;;;;4.64;100.00;97683.41;2033281;29;20274;-75
2020/12/30 00:38:46;;;;;;;10.02;9.32;;;;;;;4.63;100.00;97673.94;2033239;29;20216;-74
2020/12/30 00:39:47;;;;;;;8.50;8.00;;;;;;;4.68;100.00;97687.03;2033198;29;20224;-75
2020/12/30 00:40:48;;;;;;;9.13;8.50;;;;;;;4.68;100.00;97687.03;2032203;29;20224;-74
2020/12/30 00:41:53;;;;;;;8.97;8.37;;;;;;;4.59;100.00;97670.28;2032425;29;20754;-74
2020/12/30 00:42:54;;;;;;;9.20;8.60;;;;;;;4.55;100.00;97667.44;2024921;29;20232;-75
2020/12/30 00:43:55;;;;;;;10.13;9.00;;;;;;;4.56;100.00;97684.09;2032602;29;20234;-74
2020/12/30 00:44:57;;;;;;;10.00;9.15;;;;;;;4.46;100.00;97674.47;2033109;29;20286;-74
2020/12/30 00:45:58;;;;;;;9.27;8.68;;;;;;;4.46;100.00;97675.25;2033155;29;20263;-74
2020/12/30 00:47:00;;;;;;;9.30;8.70;;;;;;;4.41;100.00;97682.47;2033145;29;20230;-74
2020/12/30 00:48:01;;;;;;;9.85;8.98;;;;;;;4.35;100.00;97688.94;2033139;29;20223;-75
2020/12/30 00:49:02;;;;;;;8.95;8.38;;;;;;;4.20;100.00;97672.25;2032512;29;20579;-74
2020/12/30 00:50:04;;;;;;;9.43;8.82;;;;;;;4.22;100.00;97691.22;2032347;29;20223;-75
2020/12/30 00:51:12;;;;;;;8.98;8.40;;;;;;;4.15;100.00;97688.16;2031867;29;20247;-75
2020/12/30 00:52:13;;;;;;;10.00;9.30;;;;;;;4.10;100.00;97679.53;2025118;29;20232;-74
2020/12/30 00:53:18;;;;;;;8.80;8.30;;;;;;;4.10;100.00;97687.47;2025159;29;20239;-74
2020/12/30 00:54:20;;;;;;;9.85;9.05;;;;;;;3.97;100.00;97671.28;2032328;29;20650;-74
2020/12/30 00:55:21;;;;;;;9.60;8.90;;;;;;;4.01;100.00;97681.28;2031911;29;20226;-76
2020/12/30 00:56:28;;;;;;;9.38;8.77;;;;;;;3.97;100.00;97684.47;2025237;29;20228;-74
2020/12/30 00:57:30;;;;;;;9.30;8.70;;;;;;;3.95;100.00;97683.97;2024515;29;20268;-74
2020/12/30 00:58:32;;;;;;;9.93;9.27;;;;;;;3.85;100.00;97672.78;2032488;29;20234;-74
2020/12/30 00:59:33;;;;;;;9.80;9.00;;;;;;;3.86;100.00;97682.25;2032458;29;20585;-74
2020/12/30 01:00:36;;;;;;;9.23;8.60;;;;;;;3.83;100.00;97682.84;2032251;29;20227;-74
2020/12/30 01:02:10;;;;;;;8.43;7.93;;;;;;;3.77;100.00;97687.41;2038143;29;20309;-74
2020/12/30 01:03:12;;;;;;;9.00;8.40;;;;;;;3.72;100.00;97687.47;2032484;29;20231;-74
2020/12/30 01:04:14;;;;;;;9.23;8.63;;;;;;;3.68;100.00;97683.84;2032291;29;20250;-75
2020/12/30 01:05:15;;;;;;;10.00;9.30;;;;;;;3.67;100.00;97684.91;2032472;29;20282;-74
2020/12/30 01:06:15;;;;;;;8.68;8.13;;;;;;;3.62;100.00;97679.69;2032416;29;20234;-74
2020/12/30 01:07:18;;;;;;;9.23;8.63;;;;;;;3.55;100.00;97676.63;2032387;29;20286;-74
2020/12/30 01:08:19;;;;;;;9.73;8.88;;;;;;;3.57;100.00;97675.28;2032276;29;20224;-75
2020/12/30 01:09:21;;;;;;;9.52;8.93;;;;;;;3.54;100.00;97683.75;2033017;29;20306;-74
2020/12/30 01:10:22;;;;;;;9.27;8.57;;;;;;;3.46;100.00;97676.47;2032675;29;20231;-76
2020/12/30 01:11:27;;;;;;;9.50;8.90;;;;;;;3.40;100.00;97665.22;2032112;29;20236;-75
2020/12/30 01:12:27;;;;;;;9.52;8.93;;;;;;;3.45;100.00;97671.47;2032211;29;20234;-75
2020/12/30 01:13:29;;;;;;;9.90;9.10;;;;;;;3.43;100.00;97673.63;2024641;29;20689;-75
2020/12/30 01:14:31;;;;;;;8.65;8.05;;;;;;;3.37;100.00;97668.41;2032302;29;20250;-74
2020/12/30 01:15:32;;;;;;;9.63;9.02;;;;;;;3.35;100.00;97667.91;2033005;29;20238;-74
2020/12/30 01:16:33;;;;;;;10.07;9.35;;;;;;;3.33;100.00;97677.16;2032891;29;20223;-75
2020/12/30 01:17:34;;;;;;;10.90;10.10;;;;;;;3.32;100.00;97673.75;2031363;29;20258;-74
2020/12/30 01:18:37;;;;;;;9.95;9.25;;;;;;;3.32;100.00;97673.75;2032276;29;20636;-74
2020/12/30 01:19:38;;;;;;;9.57;8.85;;;;;;;3.33;100.00;97675.31;2032389;29;20227;-75
2020/12/30 01:20:39;;;;;;;10.02;9.18;;;;;;;3.30;100.00;97667.16;2032307;29;20227;-74
2020/12/30 01:21:40;;;;;;;9.97;9.17;;;;;;;3.32;100.00;97665.06;2032261;29;20231;-74
2020/12/30 01:22:41;;;;;;;10.10;9.40;;;;;;;3.20;100.00;97648.84;2032346;29;20288;-74
2020/12/30 01:23:42;;;;;;;9.88;9.05;;;;;;;3.24;100.00;97666.47;2032449;29;20250;-74
2020/12/30 01:24:43;;;;;;;9.87;9.10;;;;;;;3.21;100.00;97667.00;2033111;29;20311;-75
2020/12/30 01:25:44;;;;;;;11.15;10.25;;;;;;;3.18;100.00;97675.50;2032193;29;20723;-74
2020/12/30 01:26:46;;;;;;;10.70;10.00;;;;;;;3.12;100.00;97673.97;2032193;29;20567;-75
2020/12/30 01:27:47;;;;;;;10.90;10.00;;;;;;;3.18;100.00;97672.84;2032660;29;20238;-74
2020/12/30 01:28:49;;;;;;;10.33;9.33;;;;;;;3.18;100.00;97672.06;2033173;29;20247;-74
2020/12/30 01:29:49;;;;;;;10.48;9.52;;;;;;;3.12;100.00;97658.94;2031915;29;20223;-74
2020/12/30 01:30:51;;;;;;;10.37;9.50;;;;;;;3.12;100.00;97669.50;2032377;29;20750;-74
2020/12/30 01:31:52;;;;;;;10.30;9.60;;;;;;;3.10;100.00;97663.72;2031703;29;20235;-77
2020/12/30 01:32:52;;;;;;;10.77;9.82;;;;;;;3.11;100.00;97667.13;2032145;29;20286;-75
2020/12/30 01:33:54;;;;;;;9.67;9.07;;;;;;;3.05;100.00;97663.00;2032086;29;20678;-74
2020/12/30 01:34:54;;;;;;;11.05;10.25;;;;;;;3.08;100.00;97675.63;2032097;29;20638;-75
2020/12/30 01:35:56;;;;;;;10.77;9.90;;;;;;;3.08;100.00;97662.44;2032641;29;20223;-74
2020/12/30 01:36:57;;;;;;;12.18;9.93;;;;;;;3.11;100.00;97651.31;2032681;29;20668;-75
2020/12/30 01:37:58;;;;;;;10.33;9.53;;;;;;;3.09;100.00;97654.25;2032856;29;20246;-76
2020/12/30 01:38:59;;;;;;;11.65;10.68;;;;;;;3.18;100.00;97651.78;2032222;29;20223;-75
2020/12/30 01:40:00;;;;;;;10.77;9.95;;;;;;;3.16;100.00;97661.03;2031075;29;20238;-74
2020/12/30 01:41:01;;;;;;;10.15;9.40;;;;;;;3.09;100.00;97670.06;2032812;29;20230;-74
2020/12/30 01:42:02;;;;;;;10.83;10.13;;;;;;;3.06;100.00;97664.56;2032881;29;20317;-74
2020/12/30 01:43:03;;;;;;;10.85;10.05;;;;;;;3.08;100.00;97668.50;2031829;29;20231;-74
2020/12/30 01:44:06;;;;;;;10.73;9.83;;;;;;;3.12;100.00;97671.34;2032031;29;20230;-75
2020/12/30 01:45:07;;;;;;;11.27;10.38;;;;;;;3.13;100.00;97670.31;2031650;29;20228;-75
2020/12/30 01:46:08;;;;;;;11.23;10.13;;;;;;;3.14;100.00;97676.34;2032114;29;20223;-75
2020/12/30 01:47:09;;;;;;;10.65;9.68;;;;;;;3.11;100.00;97662.66;2032736;29;20227;-74
2020/12/30 01:48:16;;;;;;;12.00;11.00;;;;;;;3.18;100.00;97659.69;2032715;29;20231;-75
2020/12/30 01:49:19;;;;;;;10.65;9.85;;;;;;;3.17;100.00;97652.84;2032657;29;20238;-74
2020/12/30 01:50:20;;;;;;;10.80;9.90;;;;;;;3.20;100.00;97647.00;2032562;29;20290;-74
2020/12/30 01:51:21;;;;;;;11.00;10.10;;;;;;;3.19;100.00;97655.97;2032787;29;20227;-75
2020/12/30 01:52:22;;;;;;;9.93;9.03;;;;;;;3.19;100.00;97657.84;2031670;29;20324;-77
2020/12/30 01:53:23;;;;;;;11.10;10.10;;;;;;;3.16;100.00;97661.03;2031957;29;20242;-75
2020/12/30 01:54:27;;;;;;;10.93;10.03;;;;;;;3.10;100.00;97663.72;2039841;29;20313;-75
2020/12/30 01:55:29;;;;;;;10.60;9.73;;;;;;;3.13;100.00;97670.31;2032657;29;20774;-74
2020/12/30 01:56:32;;;;;;;10.75;9.85;;;;;;;3.13;100.00;97659.75;2032765;29;20624;-75
2020/12/30 01:57:35;;;;;;;11.35;10.25;;;;;;;3.08;100.00;97644.78;2031844;29;20235;-74
2020/12/30 01:58:36;;;;;;;11.20;10.27;;;;;;;3.13;100.00;97654.50;2032035;29;20215;-75
2020/12/30 01:59:37;;;;;;;11.18;10.20;;;;;;;3.12;100.00;97651.03;2032281;29;20232;-77
2020/12/30 02:00:41;;;;;;;11.00;10.20;;;;;;;3.12;100.00;97648.41;2032628;29;20231;-75
2020/12/30 02:01:44;;;;;;;10.95;9.90;;;;;;;3.08;100.00;97657.97;2032584;29;20758;-75
2020/12/30 02:02:56;;;;;;;10.63;9.63;;;;;;;3.07;100.00;97660.88;2032318;29;20227;-74
2020/12/30 02:03:58;;;;;;;11.70;10.60;;;;;;;3.04;100.00;97653.50;2031530;29;20243;-75
2020/12/30 02:05:00;;;;;;;10.68;9.88;;;;;;;3.05;100.00;97647.22;2031862;29;20699;-75
2020/12/30 02:06:01;;;;;;;10.77;9.88;;;;;;;3.04;100.00;97645.59;2031855;29;20227;-74
2020/12/30 02:07:02;;;;;;;10.70;9.80;;;;;;;3.05;100.00;97641.94;2032506;29;20230;-73
2020/12/30 02:08:04;;;;;;;10.95;10.15;;;;;;;3.07;100.00;97634.53;2022662;29;20228;-74
2020/12/30 02:09:06;;;;;;;10.75;9.85;;;;;;;3.05;100.00;97641.94;2032093;29;20223;-74
2020/12/30 02:10:09;;;;;;;11.05;9.95;;;;;;;3.05;100.00;97647.22;2032389;29;20239;-73
2020/12/30 02:11:10;;;;;;;11.55;10.60;;;;;;;3.01;100.00;97643.56;2032019;29;20238;-73
2020/12/30 02:12:11;;;;;;;11.48;10.48;;;;;;;3.01;100.00;97646.19;2024052;29;20312;-74
2020/12/30 02:13:13;;;;;;;11.23;10.20;;;;;;;2.96;100.00;97641.00;2031860;29;20267;-74
2020/12/30 02:14:13;;;;;;;12.05;10.98;;;;;;;3.03;100.00;97646.69;2032527;29;20220;-73
2020/12/30 02:15:28;;;;;;;11.17;10.13;;;;;;;3.03;100.00;97636.13;2032558;29;20340;-74
2020/12/30 02:16:29;;;;;;;10.75;9.85;;;;;;;3.05;100.00;97621.66;2032275;29;20574;-74
2020/12/30 02:17:30;;;;;;;11.77;10.87;;;;;;;3.27;100.00;97639.53;2032025;29;20231;-73
2020/12/30 02:18:31;;;;;;;11.23;10.32;;;;;;;3.30;100.00;97622.38;2031997;29;20711;-74
2020/12/30 02:19:32;;;;;;;11.27;9.90;;;;;;;3.46;100.00;97638.78;2032374;29;20643;-73
2020/12/30 02:20:33;;;;;;;12.02;10.95;;;;;;;3.51;100.00;97638.72;2032516;29;20229;-74
2020/12/30 02:21:34;;;;;;;11.00;10.10;;;;;;;3.43;100.00;97639.34;2031694;29;20227;-74
2020/12/30 02:22:35;;;;;;;11.23;10.32;;;;;;;3.34;100.00;97650.53;2031790;29;20231;-74
2020/12/30 02:23:37;;;;;;;11.87;10.87;;;;;;;3.20;100.00;97639.09;2031822;29;20229;-74
2020/12/30 02:24:39;;;;;;;11.88;10.77;;;;;;;3.10;100.00;97631.31;2032178;29;20219;-74
2020/12/30 02:25:39;;;;;;;11.27;10.35;;;;;;;3.23;100.00;97645.66;2031697;29;20847;-73
2020/12/30 02:26:40;;;;;;;12.13;11.23;;;;;;;3.25;100.00;97640.91;2031850;29;20239;-74
2020/12/30 02:27:41;;;;;;;11.60;10.60;;;;;;;3.30;100.00;97646.09;2031689;29;20579;-75
2020/12/30 02:28:42;;;;;;;11.97;10.87;;;;;;;3.30;100.00;97643.44;2031588;29;20262;-73
2020/12/30 02:29:43;;;;;;;12.35;11.35;;;;;;;3.36;100.00;97645.75;2032377;29;20250;-74
2020/12/30 02:30:44;;;;;;;13.03;10.90;;;;;;;3.35;100.00;97649.44;2032584;29;20258;-74
2020/12/30 02:31:45;;;;;;;12.57;11.38;;;;;;;3.35;100.00;97641.53;2031884;29;20711;-74
2020/12/30 02:32:47;;;;;;;11.40;10.50;;;;;;;3.43;100.00;97652.53;2031878;29;20330;-74
2020/12/30 02:33:47;;;;;;;12.02;11.02;;;;;;;3.48;100.00;97645.34;2031785;29;20243;-74
2020/12/30 02:34:49;;;;;;;11.37;10.47;;;;;;;3.51;100.00;97647.41;2024018;29;20722;-74
2020/12/30 02:35:51;;;;;;;10.73;9.77;;;;;;;3.63;100.00;97649.59;2031317;29;20223;-74
2020/12/30 02:36:52;;;;;;;11.63;10.63;;;;;;;3.55;100.00;97644.97;2031400;29;20235;-75
2020/12/30 02:37:53;;;;;;;11.30;10.30;;;;;;;3.54;100.00;97646.03;2032444;29;20235;-74
2020/12/30 02:38:55;;;;;;;10.90;10.00;;;;;;;3.56;100.00;97649.97;2031843;29;20318;-74
2020/12/30 02:39:56;;;;;;;11.82;10.73;;;;;;;3.53;100.00;97647.13;2031786;29;20227;-74
2020/12/30 02:41:00;;;;;;;11.23;10.35;;;;;;;3.53;100.00;97642.63;2031613;29;20310;-74
2020/12/30 02:42:01;;;;;;;11.15;10.25;;;;;;;3.53;100.00;97642.63;2031418;29;20652;-73
2020/12/30 02:43:02;;;;;;;11.30;10.33;;;;;;;3.53;100.00;97642.63;2031727;29;20259;-74
2020/12/30 02:44:04;;;;;;;12.30;11.20;;;;;;;3.50;100.00;97637.94;2031664;29;20554;-74
2020/12/30 02:45:06;;;;;;;11.40;10.30;;;;;;;3.47;100.00;97642.97;2032345;29;20220;-75
2020/12/30 02:46:07;;;;;;;11.10;10.20;;;;;;;3.40;100.00;97644.13;2031009;29;20302;-75
2020/12/30 02:47:08;;;;;;;12.53;11.43;;;;;;;3.40;100.00;97632.78;2031863;29;20314;-74
2020/12/30 02:48:09;;;;;;;11.40;10.50;;;;;;;3.37;100.00;97635.97;2031497;29;20698;-74
2020/12/30 02:49:10;;;;;;;12.23;11.03;;;;;;;3.42;100.00;97638.56;2031719;29;20573;-74
2020/12/30 02:50:11;;;;;;;11.57;10.70;;;;;;;3.29;100.00;97632.13;2031487;29;20227;-75
2020/12/30 02:51:12;;;;;;;11.83;11.00;;;;;;;3.31;100.00;97635.28;2031660;29;20238;-74
2020/12/30 02:52:13;;;;;;;10.88;9.90;;;;;;;3.19;100.00;97640.16;2032202;29;20234;-73
2020/12/30 02:53:15;;;;;;;12.43;11.13;;;;;;;3.12;100.00;97645.78;2032413;29;20314;-75
2020/12/30 02:54:16;;;;;;;11.02;9.98;;;;;;;2.93;100.00;97618.59;2031639;29;20230;-74
2020/12/30 02:55:18;;;;;;;11.45;10.55;;;;;;;3.03;100.00;97639.56;2031593;29;20320;-74
2020/12/30 02:56:19;;;;;;;11.50;10.60;;;;;;;2.99;100.00;97648.31;2031677;29;20648;-74
2020/12/30 02:57:21;;;;;;;10.77;9.70;;;;;;;2.88;100.00;97636.34;2031819;29;20255;-74
2020/12/30 02:58:21;;;;;;;10.70;9.90;;;;;;;2.86;100.00;97641.06;2031716;29;20318;-74
2020/12/30 02:59:22;;;;;;;12.30;10.57;;;;;;;2.79;100.00;97649.34;2031189;29;20231;-75
2020/12/30 03:00:23;;;;;;;11.13;10.32;;;;;;;2.68;100.00;97639.94;2023694;29;20303;-74
2020/12/30 03:01:24;;;;;;;11.53;10.50;;;;;;;2.70;100.00;97654.44;2031497;29;20231;-75
2020/12/30 03:02:25;;;;;;;11.98;10.95;;;;;;;2.68;100.00;97647.84;2032311;29;20238;-74
2020/12/30 03:03:27;;;;;;;12.05;11.07;;;;;;;2.54;100.00;97631.94;2031736;29;20303;-74
2020/12/30 03:04:27;;;;;;;11.15;10.23;;;;;;;2.50;100.00;97626.44;2023637;29;20725;-75
2020/12/30 03:05:28;;;;;;;11.57;10.57;;;;;;;2.53;100.00;97638.28;2023671;29;20655;-74
2020/12/30 03:06:29;;;;;;;12.30;11.20;;;;;;;2.50;100.00;97646.72;2031690;29;20231;-75
2020/12/30 03:07:30;;;;;;;11.90;10.80;;;;;;;2.42;100.00;97634.94;2032448;29;20235;-74
2020/12/30 03:08:31;;;;;;;12.05;10.95;;;;;;;2.45;100.00;97650.19;2032370;29;20581;-74
2020/12/30 03:09:33;;;;;;;12.68;10.80;;;;;;;2.41;100.00;97643.13;2032344;29;20310;-74
2020/12/30 03:10:35;;;;;;;12.30;11.20;;;;;;;2.38;100.00;97638.41;2032281;29;20231;-74
2020/12/30 03:11:36;;;;;;;12.43;10.88;;;;;;;2.26;100.00;97629.06;2031484;29;20224;-74
2020/12/30 03:12:36;;;;;;;16.33;11.30;;;;;;;2.31;100.00;97630.06;2023306;29;20683;-76
2020/12/30 03:13:39;;;;;;;11.07;10.23;;;;;;;2.28;100.00;97633.25;2031576;29;20570;-75
2020/12/30 03:14:40;;;;;;;11.30;10.50;;;;;;;2.26;100.00;97638.78;2032119;29;20235;-75
2020/12/30 03:15:42;;;;;;;12.32;11.32;;;;;;;2.21;100.00;97639.63;2032218;29;20674;-74
2020/12/30 03:16:42;;;;;;;12.05;10.95;;;;;;;2.05;100.00;97627.63;2032311;29;20230;-74
2020/12/30 03:17:43;;;;;;;12.30;11.03;;;;;;;2.13;100.00;97642.84;2032280;29;20303;-74
2020/12/30 03:18:44;;;;;;;11.52;10.52;;;;;;;1.98;100.00;97621.91;2031518;29;20702;-74
2020/12/30 03:19:45;;;;;;;15.00;11.40;;;;;;;2.03;100.00;97628.97;2031338;29;20602;-74
2020/12/30 03:20:46;;;;;;;12.52;10.82;;;;;;;2.02;100.00;97643.19;2023639;29;20699;-74
2020/12/30 03:21:47;;;;;;;13.13;11.90;;;;;;;1.87;100.00;97628.31;2031645;29;20632;-75
2020/12/30 03:22:48;;;;;;;13.00;11.55;;;;;;;1.93;100.00;97641.16;2031300;29;20642;-74
2020/12/30 03:23:49;;;;;;;13.30;12.10;;;;;;;1.94;100.00;97637.47;2031821;29;20310;-74
2020/12/30 03:24:50;;;;;;;13.43;12.23;;;;;;;1.91;100.00;97629.31;2031564;29;20712;-74
2020/12/30 03:25:52;;;;;;;13.47;12.20;;;;;;;1.81;100.00;97613.63;2032252;29;20592;-74
2020/12/30 03:26:53;;;;;;;15.45;12.85;;;;;;;1.88;100.00;97627.25;2031312;29;20234;-74
2020/12/30 03:27:56;;;;;;;15.13;13.13;;;;;;;1.87;100.00;97633.56;2031507;29;20769;-74
2020/12/30 03:28:57;;;;;;;15.38;13.85;;;;;;;1.93;100.00;97637.75;2032285;29;20227;-75
2020/12/30 03:29:58;;;;;;;17.17;14.07;;;;;;;1.87;100.00;97631.72;2032262;29;20253;-75
2020/12/30 03:30:58;;;;;;;16.77;13.93;;;;;;;1.95;100.00;97641.66;2032249;29;20656;-74
2020/12/30 03:32:00;;;;;;;15.77;14.10;;;;;;;1.97;100.00;97636.13;2032167;29;20231;-74
2020/12/30 03:33:00;;;;;;;16.30;13.75;;;;;;;1.96;100.00;97634.56;2031302;29;20227;-73
2020/12/30 03:34:02;;;;;;;16.47;13.93;;;;;;;1.94;100.00;97632.19;2031445;29;20258;-74
2020/12/30 03:35:03;;;;;;;15.57;13.98;;;;;;;1.88;100.00;97627.25;2031317;29;20223;-74
2020/12/30 03:36:04;;;;;;;15.73;13.50;;;;;;;1.91;100.00;97639.84;2031563;29;20235;-75
2020/12/30 03:37:05;;;;;;;17.17;14.45;;;;;;;1.97;100.00;97646.63;2032234;29;20227;-74
2020/12/30 03:38:06;;;;;;;20.00;15.53;;;;;;;1.95;100.00;97630.34;2031546;29;20234;-74
2020/12/30 03:39:07;;;;;;;17.63;14.80;;;;;;;2.00;100.00;97640.84;2031027;29;20235;-75
2020/12/30 03:40:08;;;;;;;17.40;14.30;;;;;;;1.97;100.00;97634.28;2032147;29;20310;-74
2020/12/30 03:41:09;;;;;;;16.10;14.35;;;;;;;1.99;100.00;97626.09;2032838;29;20290;-74
2020/12/30 03:42:11;;;;;;;17.48;14.38;;;;;;;1.87;100.00;97610.69;2032728;29;20242;-74
2020/12/30 03:43:11;;;;;;;16.77;14.60;;;;;;;1.96;100.00;97624.03;2033333;29;20768;-75
2020/12/30 03:44:13;;;;;;;14.67;12.90;;;;;;;1.95;100.00;97625.88;2025451;29;20553;-74
2020/12/30 03:45:13;;;;;;;14.43;12.95;;;;;;;1.92;100.00;97626.44;2024712;29;20231;-74
2020/12/30 03:46:15;;;;;;;17.03;13.93;;;;;;;1.84;100.00;97620.97;2032443;29;20315;-74
2020/12/30 03:47:15;;;;;;;15.68;13.48;;;;;;;1.96;100.00;97619.56;2033727;29;20491;-74
2020/12/30 03:48:17;;;;;;;15.37;13.77;;;;;;;1.99;100.00;97626.09;2033731;29;20718;-74
2020/12/30 03:49:17;;;;;;;14.95;13.38;;;;;;;1.97;100.00;97628.22;2032783;29;20224;-75
2020/12/30 03:50:18;;;;;;;17.13;13.87;;;;;;;1.95;100.00;97633.78;2032912;29;20239;-75
2020/12/30 03:51:19;;;;;;;17.08;14.73;;;;;;;1.98;100.00;97635.06;2032770;29;20231;-74
2020/12/30 03:52:20;;;;;;;20.13;14.77;;;;;;;1.98;100.00;97635.06;2032741;29;20231;-74
2020/12/30 03:53:21;;;;;;;18.27;14.32;;;;;;;1.96;100.00;97637.19;2032856;29;20227;-74
2020/12/30 03:54:22;;;;;;;16.67;14.57;;;;;;;1.96;100.00;97639.81;2032516;29;20251;-75
2020/12/30 03:55:23;;;;;;;16.02;14.35;;;;;;;1.81;100.00;97617.03;2032407;29;20271;-75
2020/12/30 03:56:25;;;;;;;17.53;14.97;;;;;;;1.95;100.00;97638.25;2032749;29;20275;-74
2020/12/30 03:57:26;;;;;;;16.88;14.65;;;;;;;1.92;100.00;97638.81;2033383;29;20231;-74
2020/12/30 03:58:27;;;;;;;17.20;14.97;;;;;;;2.01;100.00;97642.41;2033615;29;20319;-75
2020/12/30 03:59:28;;;;;;;19.35;15.02;;;;;;;1.99;100.00;97632.16;2032446;29;20227;-75
2020/12/30 04:00:29;;;;;;;18.57;14.20;;;;;;;1.98;100.00;97630.59;2032826;29;20261;-74
2020/12/30 04:01:29;;;;;;;16.42;14.68;;;;;;;1.96;100.00;97637.19;2032541;29;20290;-74
2020/12/30 04:02:31;;;;;;;14.77;12.90;;;;;;;1.88;100.00;97627.25;2032755;29;20227;-74
2020/12/30 04:03:31;;;;;;;14.00;12.65;;;;;;;1.88;100.00;97632.50;2032935;29;20706;-74
2020/12/30 04:04:33;;;;;;;18.07;13.80;;;;;;;1.83;100.00;97628.09;2025267;29;20649;-74
2020/12/30 04:05:33;;;;;;;16.38;14.77;;;;;;;1.83;100.00;97628.09;2032727;29;20715;-74
2020/12/30 04:06:34;;;;;;;21.63;15.23;;;;;;;1.80;100.00;97623.34;2032835;29;20629;-74
2020/12/30 04:07:35;;;;;;;17.95;15.10;;;;;;;1.76;100.00;97621.56;2040482;29;20223;-74
2020/12/30 04:08:36;;;;;;;19.53;15.77;;;;;;;1.76;100.00;97616.31;2032608;29;20235;-75
2020/12/30 04:09:37;;;;;;;18.02;15.48;;;;;;;1.60;100.00;97599.84;2031966;29;20690;-76
2020/12/30 04:10:38;;;;;;;17.17;14.70;;;;;;;1.70;100.00;97624.22;2024990;29;20719;-74
2020/12/30 04:11:40;;;;;;;18.88;15.52;;;;;;;1.67;100.00;97622.16;2032809;29;20227;-74
2020/12/30 04:12:41;;;;;;;18.73;15.63;;;;;;;1.66;100.00;97622.41;2033366;29;20749;-74
2020/12/30 04:13:42;;;;;;;17.75;15.88;;;;;;;1.64;100.00;97625.31;2033016;29;20762;-74
2020/12/30 04:14:43;;;;;;;17.93;15.70;;;;;;;1.59;100.00;97609.59;2032765;29;20653;-74
2020/12/30 04:15:45;;;;;;;16.83;15.18;;;;;;;1.69;100.00;97622.66;2032928;29;20228;-74
2020/12/30 04:16:47;;;;;;;16.92;14.60;;;;;;;1.62;100.00;97618.75;2032615;29;20223;-74
2020/12/30 04:17:47;;;;;;;17.58;15.65;;;;;;;1.65;100.00;97629.53;2032580;29;20225;-74
2020/12/30 04:18:48;;;;;;;19.67;15.53;;;;;;;1.63;100.00;97634.25;2032646;29;20239;-74
2020/12/30 04:19:49;;;;;;;24.98;14.23;;;;;;;1.60;100.00;97642.69;2033489;29;20253;-74
2020/12/30 04:20:50;;;;;;;17.27;15.43;;;;;;;1.63;100.00;97647.38;2033386;29;20246;-75
2020/12/30 04:21:51;;;;;;;18.38;15.77;;;;;;;1.61;100.00;97646.88;2033396;29;20228;-75
2020/12/30 04:22:53;;;;;;;16.97;14.53;;;;;;;1.68;100.00;97647.38;2032980;29;20227;-75
2020/12/30 04:23:54;;;;;;;18.67;15.68;;;;;;;1.70;100.00;97639.22;2033318;29;20234;-74
2020/12/30 04:24:55;;;;;;;19.70;15.25;;;;;;;1.71;100.00;97646.03;2033251;29;20282;-76
2020/12/30 04:25:56;;;;;;;17.25;14.85;;;;;;;1.70;100.00;97640.00;2032368;29;20235;-74
2020/12/30 04:26:58;;;;;;;18.63;15.73;;;;;;;1.79;100.00;97636.78;2032513;29;20255;-75
2020/12/30 04:27:59;;;;;;;16.02;14.43;;;;;;;2.06;100.00;97629.22;2032122;29;20231;-74
2020/12/30 04:29:00;;;;;;;18.63;14.43;;;;;;;2.18;100.00;97634.91;2032593;29;20226;-75
2020/12/30 04:30:01;;;;;;;18.23;15.50;;;;;;;2.25;100.00;97635.34;2032504;29;20286;-74
2020/12/30 04:31:02;;;;;;;16.57;14.67;;;;;;;2.19;100.00;97636.47;2032710;29;20231;-75
2020/12/30 04:32:03;;;;;;;17.83;14.93;;;;;;;2.11;100.00;97639.69;2032504;29;20238;-74
2020/12/30 04:33:04;;;;;;;16.10;14.40;;;;;;;2.03;100.00;97635.03;2032535;29;20228;-75
2020/12/30 04:34:05;;;;;;;16.52;14.43;;;;;;;2.05;100.00;97640.78;2032590;29;20227;-75
2020/12/30 04:35:07;;;;;;;17.02;15.27;;;;;;;2.02;100.00;97643.97;2032835;29;20231;-75
2020/12/30 04:36:09;;;;;;;16.55;14.45;;;;;;;2.05;100.00;97635.53;2032923;29;20721;-75
2020/12/30 04:37:11;;;;;;;20.92;15.30;;;;;;;2.00;100.00;97632.97;2032498;29;20663;-74
2020/12/30 04:38:13;;;;;;;17.60;15.73;;;;;;;1.97;100.00;97633.50;2032711;29;20770;-74
2020/12/30 04:39:13;;;;;;;17.48;14.00;;;;;;;1.97;100.00;97636.13;2033088;29;20231;-75
2020/12/30 04:40:15;;;;;;;16.90;14.53;;;;;;;1.91;100.00;97634.59;2033199;29;20230;-74
2020/12/30 04:41:16;;;;;;;17.30;15.38;;;;;;;1.81;100.00;97635.44;2032700;29;20710;-75
2020/12/30 04:42:23;;;;;;;17.30;14.95;;;;;;;1.87;100.00;97642.25;2032632;29;20250;-75
2020/12/30 04:43:24;;;;;;;17.88;15.13;;;;;;;1.79;100.00;97636.78;2032016;29;20278;-75
2020/12/30 04:44:27;;;;;;;18.83;15.27;;;;;;;1.75;100.00;97631.28;2023547;29;20319;-75
2020/12/30 04:45:30;;;;;;;17.75;15.18;;;;;;;1.77;100.00;97638.91;2040344;29;20226;-75